Time;durP1;ratioP1;P1;durP2;ratioP2;P2;SDS_P1;SDS_P2;PMS_P1;PMS_P2;Temp;Humidity;BMP_temperature;BMP_pressure;BME280_temperature;BME280_humidity;BME280_pressure;Samples;Min_cycle;Max_cycle;Signal;HPM_P1;HPM_P2
2021/07/08 00:01:20;;;;;;;8.55;3.85;;;;;;;15.78;68.81;99876.78;4952945;28;20031;-74
2021/07/08 00:03:46;;;;;;;5.18;4.25;;;;;;;15.70;69.20;99876.44;4953215;28;20039;-74
2021/07/08 00:06:12;;;;;;;10.95;4.40;;;;;;;15.66;69.49;99879.28;4969689;28;20045;-74
2021/07/08 00:08:37;;;;;;;9.05;3.80;;;;;;;15.60;69.39;99879.72;4973376;28;20458;-75
2021/07/08 00:11:03;;;;;;;6.22;4.13;;;;;;;15.57;69.67;99874.59;4973957;28;20057;-74
2021/07/08 00:13:29;;;;;;;9.68;4.88;;;;;;;15.55;69.60;99875.66;4973075;28;20053;-74
2021/07/08 00:15:56;;;;;;;6.78;3.78;;;;;;;15.53;69.41;99881.09;4973812;28;20031;-74
2021/07/08 00:18:23;;;;;;;8.93;4.05;;;;;;;15.55;69.70;99884.47;4973197;28;20027;-74
2021/07/08 00:20:49;;;;;;;5.40;4.10;;;;;;;15.56;69.73;99882.69;4973644;28;20042;-74
2021/07/08 00:23:16;;;;;;;16.20;4.25;;;;;;;15.56;69.55;99882.69;4974083;28;20035;-74
2021/07/08 00:25:43;;;;;;;8.68;5.20;;;;;;;15.50;69.67;99873.31;4973705;28;20051;-75
2021/07/08 00:28:12;;;;;;;12.93;5.18;;;;;;;15.43;70.10;99880.88;4973818;28;20054;-74
2021/07/08 00:30:39;;;;;;;5.40;3.97;;;;;;;15.46;69.42;99875.34;4956305;28;20039;-74
2021/07/08 00:33:04;;;;;;;5.50;3.55;;;;;;;15.53;69.22;99873.13;4972452;28;20487;-74
2021/07/08 00:35:29;;;;;;;8.23;4.18;;;;;;;15.55;69.13;99870.34;4973372;28;20177;-74
2021/07/08 00:37:55;;;;;;;8.52;4.07;;;;;;;15.55;69.19;99876.50;4955979;28;20039;-73
2021/07/08 00:40:20;;;;;;;10.90;4.57;;;;;;;15.57;68.92;99881.72;4956232;28;20487;-73
2021/07/08 00:42:46;;;;;;;7.60;4.03;;;;;;;15.57;68.75;99879.91;4956206;28;20053;-74
2021/07/08 00:45:15;;;;;;;6.78;4.28;;;;;;;15.55;69.10;99888.94;4973543;28;20074;-74
2021/07/08 00:47:41;;;;;;;9.43;4.40;;;;;;;15.54;69.28;99892.56;4973284;28;20035;-74
2021/07/08 00:50:09;;;;;;;8.00;3.95;;;;;;;15.50;69.03;99889.25;4956849;28;20042;-75
2021/07/08 00:52:36;;;;;;;8.75;3.83;;;;;;;15.53;69.03;99891.72;4973663;28;20114;-72
2021/07/08 00:55:01;;;;;;;4.15;3.45;;;;;;;15.58;68.89;99891.38;4973261;28;20134;-75
2021/07/08 00:57:27;;;;;;;6.38;4.60;;;;;;;15.61;68.90;99888.53;4973435;28;20396;-74
2021/07/08 00:59:53;;;;;;;6.97;4.68;;;;;;;15.64;68.36;99889.16;4973096;28;20174;-74
2021/07/08 01:02:20;;;;;;;5.22;3.42;;;;;;;15.61;68.77;99880.56;4948988;28;20391;-73
2021/07/08 01:04:47;;;;;;;6.00;3.92;;;;;;;15.59;69.08;99888.63;4973019;28;20058;-73
2021/07/08 01:07:15;;;;;;;4.80;3.60;;;;;;;15.59;68.67;99883.31;4972847;28;20064;-73
2021/07/08 01:09:41;;;;;;;7.20;4.47;;;;;;;15.61;68.18;99881.41;4972624;28;20030;-73
2021/07/08 01:12:07;;;;;;;4.43;3.30;;;;;;;15.66;68.17;99881.94;4973154;28;20058;-74
2021/07/08 01:14:33;;;;;;;5.03;3.67;;;;;;;15.66;68.24;99871.31;4972757;28;20689;-74
2021/07/08 01:16:59;;;;;;;6.65;3.78;;;;;;;15.63;68.55;99868.88;4972672;28;20125;-73
2021/07/08 01:19:25;;;;;;;5.43;3.85;;;;;;;15.63;68.00;99857.41;4973431;28;20073;-74
2021/07/08 01:21:50;;;;;;;7.97;3.75;;;;;;;15.64;68.76;99856.44;4976400;28;20030;-74
2021/07/08 01:24:16;;;;;;;7.07;3.63;;;;;;;15.63;68.26;99860.91;4958883;28;20035;-74
2021/07/08 01:26:42;;;;;;;6.75;3.33;;;;;;;15.60;68.43;99855.81;4976989;28;20023;-75
2021/07/08 01:29:07;;;;;;;6.38;3.80;;;;;;;15.59;68.48;99863.88;4976934;28;20380;-74
2021/07/08 01:31:33;;;;;;;8.00;4.90;;;;;;;15.56;69.00;99859.63;4972807;28;20125;-74
2021/07/08 01:33:59;;;;;;;5.43;3.95;;;;;;;15.58;68.85;99862.16;4973264;28;20042;-74
2021/07/08 01:36:24;;;;;;;9.02;3.83;;;;;;;15.57;69.22;99860.47;4973818;28;20034;-74
2021/07/08 01:38:50;;;;;;;7.75;3.40;;;;;;;15.53;69.10;99854.53;4974364;28;20046;-74
2021/07/08 01:41:16;;;;;;;8.07;3.53;;;;;;;15.53;68.58;99859.84;4972684;28;20110;-75
2021/07/08 01:43:43;;;;;;;3.83;3.17;;;;;;;15.52;68.94;99854.63;4977413;28;20056;-74
2021/07/08 01:46:10;;;;;;;6.65;3.35;;;;;;;15.54;68.75;99853.56;4972687;28;20031;-75
2021/07/08 01:48:36;;;;;;;4.32;3.65;;;;;;;15.53;68.85;99864.28;4970653;28;20470;-76
2021/07/08 01:51:05;;;;;;;4.53;3.30;;;;;;;15.50;69.11;99868.00;4968003;28;20547;-76
2021/07/08 01:53:32;;;;;;;4.68;3.35;;;;;;;15.45;69.20;99857.69;4971259;28;20561;-75
2021/07/08 01:55:57;;;;;;;6.50;4.10;;;;;;;15.39;69.53;99866.06;4971725;28;20041;-75
2021/07/08 01:58:26;;;;;;;4.78;3.03;;;;;;;15.35;69.67;99867.22;4954744;28;20479;-75
2021/07/08 02:00:52;;;;;;;7.35;2.97;;;;;;;15.41;69.23;99868.66;4972261;28;20123;-75
2021/07/08 02:03:18;;;;;;;6.18;3.35;;;;;;;15.46;68.93;99862.06;4954435;28;20035;-75
2021/07/08 02:05:44;;;;;;;5.00;2.67;;;;;;;15.44;69.21;99855.16;4971214;28;20054;-75
2021/07/08 02:08:09;;;;;;;5.85;3.20;;;;;;;15.43;69.67;99864.06;4971655;28;20030;-75
2021/07/08 02:10:35;;;;;;;4.13;3.17;;;;;;;15.41;69.60;99866.00;4972168;28;20030;-75
2021/07/08 02:13:00;;;;;;;5.75;2.60;;;;;;;15.40;69.48;99866.94;4972159;28;20070;-75
2021/07/08 02:15:26;;;;;;;5.97;3.30;;;;;;;15.39;69.81;99868.72;4972682;28;20050;-75
2021/07/08 02:17:51;;;;;;;10.10;3.60;;;;;;;15.36;70.07;99870.75;4972082;28;20049;-75
2021/07/08 02:20:17;;;;;;;4.75;3.03;;;;;;;15.34;70.17;99870.84;4971623;28;20043;-75
2021/07/08 02:22:42;;;;;;;7.32;4.25;;;;;;;15.30;70.83;99869.34;4971414;28;20033;-75
2021/07/08 02:25:09;;;;;;;6.13;2.95;;;;;;;15.28;70.67;99865.94;4971644;28;20093;-75
2021/07/08 02:27:36;;;;;;;8.25;4.45;;;;;;;15.23;70.94;99853.00;4970996;28;20097;-75
2021/07/08 02:30:10;;;;;;;8.95;3.25;;;;;;;15.23;70.78;99865.41;4970942;28;20034;-75
2021/07/08 02:32:40;;;;;;;5.28;3.47;;;;;;;15.23;70.99;99866.28;4971132;28;20085;-75
2021/07/08 02:35:07;;;;;;;7.60;4.10;;;;;;;15.18;71.22;99867.53;4953939;28;20042;-74
2021/07/08 02:37:34;;;;;;;6.25;3.47;;;;;;;15.16;70.92;99869.41;4970877;28;20640;-73
2021/07/08 02:39:59;;;;;;;9.25;4.68;;;;;;;15.20;70.91;99878.91;4971040;28;20043;-74
2021/07/08 02:42:25;;;;;;;7.68;4.35;;;;;;;15.18;70.90;99879.00;4969769;28;20117;-74
2021/07/08 02:44:50;;;;;;;6.35;3.55;;;;;;;15.17;70.68;99874.63;4971543;28;20042;-74
2021/07/08 02:47:15;;;;;;;5.95;3.65;;;;;;;15.18;70.53;99873.69;4970764;28;20038;-74
2021/07/08 02:49:41;;;;;;;9.88;4.80;;;;;;;15.17;70.48;99866.69;4970951;28;20035;-74
2021/07/08 02:52:06;;;;;;;4.88;3.42;;;;;;;15.18;70.80;99872.84;4970778;28;20027;-74
2021/07/08 02:54:33;;;;;;;4.15;3.05;;;;;;;15.18;70.95;99875.50;4970870;28;20039;-74
2021/07/08 02:56:58;;;;;;;7.90;3.58;;;;;;;15.15;70.89;99873.03;4970636;28;20047;-75
2021/07/08 02:59:24;;;;;;;7.88;3.83;;;;;;;15.14;70.85;99874.00;4953909;28;20380;-75
2021/07/08 03:01:49;;;;;;;6.80;3.63;;;;;;;15.11;71.23;99882.16;4970557;28;20152;-75
2021/07/08 03:04:14;;;;;;;5.28;3.38;;;;;;;15.11;71.06;99882.16;4970624;28;20147;-74
2021/07/08 03:06:39;;;;;;;5.75;3.42;;;;;;;15.11;71.41;99880.38;4970461;28;20041;-74
2021/07/08 03:09:05;;;;;;;6.57;3.75;;;;;;;15.11;71.11;99872.41;4953452;28;20046;-74
2021/07/08 03:11:31;;;;;;;4.97;3.15;;;;;;;15.12;71.16;99874.09;4970463;28;20035;-74
2021/07/08 03:13:56;;;;;;;4.00;3.00;;;;;;;15.14;71.08;99876.66;4953156;28;20049;-74
2021/07/08 03:16:21;;;;;;;8.00;3.25;;;;;;;15.13;71.20;99873.13;4970613;28;20102;-74
2021/07/08 03:18:47;;;;;;;5.57;3.38;;;;;;;15.13;71.01;99867.81;4970428;28;20035;-74
2021/07/08 03:21:12;;;;;;;6.75;3.25;;;;;;;15.14;71.20;99866.88;4970723;28;20139;-75
2021/07/08 03:23:38;;;;;;;5.05;2.83;;;;;;;15.13;70.88;99867.81;4971077;28;20034;-74
2021/07/08 03:26:03;;;;;;;6.28;3.20;;;;;;;15.11;70.98;99867.09;4970425;28;20039;-75
2021/07/08 03:28:29;;;;;;;6.38;3.00;;;;;;;15.11;71.10;99875.06;4971204;28;20566;-74
2021/07/08 03:30:54;;;;;;;14.23;4.13;;;;;;;15.12;71.32;99874.09;4972331;28;20110;-74
2021/07/08 03:33:20;;;;;;;8.88;3.42;;;;;;;15.13;70.99;99877.59;4971704;28;20546;-74
2021/07/08 03:35:45;;;;;;;4.68;3.55;;;;;;;15.14;70.68;99885.47;4973101;28;20118;-74
2021/07/08 03:38:10;;;;;;;8.13;4.20;;;;;;;15.15;71.00;99884.50;4970167;28;20031;-74
2021/07/08 03:40:37;;;;;;;5.25;3.72;;;;;;;15.16;71.17;99891.53;4970146;28;20652;-74
2021/07/08 03:43:03;;;;;;;6.20;3.22;;;;;;;15.18;71.11;99886.94;4972529;28;20126;-74
2021/07/08 03:45:28;;;;;;;6.20;3.58;;;;;;;15.19;70.95;99888.69;4974392;28;20458;-75
2021/07/08 03:47:53;;;;;;;5.88;4.00;;;;;;;15.22;71.01;99892.94;4976628;28;20035;-75
2021/07/08 03:50:19;;;;;;;6.43;3.63;;;;;;;15.22;70.61;99895.59;4974318;28;20552;-74
2021/07/08 03:52:45;;;;;;;7.97;3.83;;;;;;;15.21;71.01;99897.41;4974211;28;20035;-73
2021/07/08 03:55:16;;;;;;;5.85;4.03;;;;;;;15.20;71.29;99902.78;4974291;28;20031;-74
2021/07/08 03:57:55;;;;;;;4.45;3.67;;;;;;;15.18;71.52;99912.66;4973635;28;20121;-74
2021/07/08 04:00:35;;;;;;;5.80;3.83;;;;;;;15.18;71.80;99905.53;4974168;28;20460;-74
2021/07/08 04:03:10;;;;;;;6.75;3.30;;;;;;;15.19;71.58;99907.25;4973463;28;20039;-75
2021/07/08 04:05:36;;;;;;;5.35;3.17;;;;;;;15.21;71.44;99905.38;4973918;28;20491;-75
2021/07/08 04:08:02;;;;;;;5.32;3.80;;;;;;;15.20;71.77;99914.25;4973838;28;20045;-74
2021/07/08 04:10:28;;;;;;;4.63;3.00;;;;;;;15.24;70.84;99914.94;4972776;28;20055;-75
2021/07/08 04:12:54;;;;;;;8.15;3.70;;;;;;;15.30;70.79;99909.19;4974184;28;20031;-75
2021/07/08 04:15:20;;;;;;;6.30;3.80;;;;;;;15.35;70.55;99901.75;4973780;28;20494;-74
2021/07/08 04:17:46;;;;;;;5.20;3.15;;;;;;;15.40;70.32;99899.66;4973099;28;20551;-75
2021/07/08 04:20:14;;;;;;;6.97;3.50;;;;;;;15.43;70.41;99902.13;4973200;28;20177;-74
2021/07/08 04:22:40;;;;;;;6.55;3.40;;;;;;;15.51;69.79;99916.69;4973670;28;20414;-75
2021/07/08 04:25:07;;;;;;;11.93;3.97;;;;;;;15.56;69.82;99914.56;4973770;28;20035;-76
2021/07/08 04:27:34;;;;;;;6.63;3.30;;;;;;;15.55;69.77;99916.34;4973433;28;20033;-74
2021/07/08 04:30:00;;;;;;;5.72;3.58;;;;;;;15.56;69.92;99918.06;4973554;28;20064;-74
2021/07/08 04:32:25;;;;;;;4.35;2.72;;;;;;;15.58;69.81;99916.19;4956485;28;20562;-74
2021/07/08 04:34:50;;;;;;;4.60;3.25;;;;;;;15.59;69.75;99917.88;4973462;28;20050;-74
2021/07/08 04:37:15;;;;;;;6.32;3.80;;;;;;;15.63;69.81;99924.69;4973133;28;20131;-73
2021/07/08 04:39:41;;;;;;;5.50;2.55;;;;;;;15.64;69.75;99923.72;4973188;28;20035;-74
2021/07/08 04:42:07;;;;;;;3.47;2.72;;;;;;;15.68;69.83;99925.22;4972820;28;20530;-75
2021/07/08 04:44:33;;;;;;;4.93;3.72;;;;;;;15.65;70.14;99924.56;4973276;28;20419;-74
2021/07/08 04:47:01;;;;;;;7.32;3.25;;;;;;;15.68;70.26;99929.69;4973121;28;20077;-74
2021/07/08 04:49:27;;;;;;;6.43;3.13;;;;;;;15.70;70.21;99926.94;4973281;28;20043;-74
2021/07/08 04:51:52;;;;;;;5.03;3.88;;;;;;;15.75;70.40;99925.69;4956192;28;20038;-75
2021/07/08 04:54:17;;;;;;;4.53;2.95;;;;;;;15.80;70.30;99928.00;4972349;28;20086;-75
2021/07/08 04:56:43;;;;;;;6.63;3.20;;;;;;;15.83;70.13;99927.81;4973010;28;20038;-75
2021/07/08 04:59:08;;;;;;;5.00;3.17;;;;;;;15.90;70.11;99929.09;4973136;28;20067;-75
2021/07/08 05:01:33;;;;;;;6.53;3.75;;;;;;;15.92;69.80;99932.47;4972863;28;20549;-75
2021/07/08 05:04:00;;;;;;;4.47;3.17;;;;;;;15.97;69.71;99934.81;4972696;28;20031;-76
2021/07/08 05:06:26;;;;;;;6.43;3.10;;;;;;;16.04;69.50;99938.75;4973358;28;20069;-75
2021/07/08 05:08:52;;;;;;;4.30;3.00;;;;;;;16.08;69.50;99933.13;4956397;28;20039;-75
2021/07/08 05:11:17;;;;;;;5.35;3.45;;;;;;;16.16;69.24;99926.41;4973579;28;20051;-75
2021/07/08 05:13:42;;;;;;;10.88;3.30;;;;;;;16.21;69.31;99924.28;4972732;28;20074;-75
2021/07/08 05:16:07;;;;;;;3.70;3.13;;;;;;;16.24;69.61;99924.94;4974301;28;20039;-74
2021/07/08 05:18:33;;;;;;;6.10;3.53;;;;;;;16.26;69.76;99923.00;4972672;28;20034;-74
2021/07/08 05:20:59;;;;;;;10.20;4.70;;;;;;;16.26;70.22;99919.50;4973138;28;20065;-74
2021/07/08 05:23:26;;;;;;;8.85;3.53;;;;;;;16.19;70.62;99913.75;4973478;28;20042;-75
2021/07/08 05:25:52;;;;;;;5.50;3.90;;;;;;;16.18;70.69;99920.03;4972559;28;20430;-76
2021/07/08 05:28:18;;;;;;;7.25;3.72;;;;;;;16.26;70.47;99920.34;4971894;28;20031;-74
2021/07/08 05:30:44;;;;;;;8.80;3.85;;;;;;;16.34;70.17;99919.78;4972652;28;20125;-74
2021/07/08 05:33:10;;;;;;;8.68;3.67;;;;;;;16.40;70.07;99924.69;4972332;28;20174;-75
2021/07/08 05:35:35;;;;;;;5.10;3.30;;;;;;;16.46;70.10;99921.56;4972085;28;20367;-76
2021/07/08 05:38:01;;;;;;;5.65;3.83;;;;;;;16.50;69.95;99931.06;4972213;28;20050;-75
2021/07/08 05:40:27;;;;;;;9.00;3.40;;;;;;;16.55;70.09;99932.53;4956580;28;20494;-76
2021/07/08 05:42:52;;;;;;;4.93;3.90;;;;;;;16.64;70.02;99937.22;4955117;28;20515;-76
2021/07/08 05:45:19;;;;;;;7.40;3.33;;;;;;;16.77;69.56;99942.50;4974133;28;20155;-76
2021/07/08 05:47:45;;;;;;;8.07;3.90;;;;;;;16.90;68.82;99940.66;4972184;28;20038;-74
2021/07/08 05:50:10;;;;;;;4.70;3.40;;;;;;;16.94;69.11;99937.66;4955194;28;20035;-75
2021/07/08 05:52:36;;;;;;;6.13;2.92;;;;;;;17.01;68.98;99942.56;4954599;28;20475;-75
2021/07/08 05:55:01;;;;;;;5.25;3.22;;;;;;;17.13;68.25;99947.81;4972861;28;20447;-76
2021/07/08 05:57:27;;;;;;;5.15;3.38;;;;;;;17.24;68.33;99947.00;4985194;28;20108;-74
2021/07/08 05:59:54;;;;;;;4.50;3.22;;;;;;;17.39;68.15;99945.03;4992513;28;20045;-74
2021/07/08 06:02:20;;;;;;;6.78;3.70;;;;;;;17.49;67.28;99953.19;4992162;28;20030;-75
2021/07/08 06:04:45;;;;;;;7.78;3.03;;;;;;;17.63;65.45;99954.81;4992308;28;20034;-74
2021/07/08 06:07:11;;;;;;;8.55;3.47;;;;;;;17.73;66.50;99961.97;4993353;28;20088;-76
2021/07/08 06:09:36;;;;;;;5.82;4.07;;;;;;;17.84;64.36;99963.00;4992154;28;20041;-75
2021/07/08 06:12:02;;;;;;;4.65;2.90;;;;;;;17.91;63.29;99962.41;4991022;28;20050;-75
2021/07/08 06:14:27;;;;;;;8.00;3.65;;;;;;;18.01;63.15;99954.53;4957751;28;20490;-74
2021/07/08 06:16:53;;;;;;;6.82;3.25;;;;;;;18.11;62.80;99955.53;4991284;28;20038;-75
2021/07/08 06:19:18;;;;;;;7.53;3.40;;;;;;;18.20;62.43;99949.47;4973518;28;20510;-76
2021/07/08 06:21:44;;;;;;;9.70;3.17;;;;;;;18.26;62.22;99952.63;4973555;28;20060;-75
2021/07/08 06:24:09;;;;;;;6.65;3.10;;;;;;;18.28;61.92;99958.72;4991462;28;20394;-75
2021/07/08 06:26:35;;;;;;;4.97;3.35;;;;;;;18.33;61.96;99964.53;4973581;28;20026;-74
2021/07/08 06:29:01;;;;;;;7.18;4.00;;;;;;;18.39;62.30;99966.72;4991293;28;20387;-74
2021/07/08 06:31:27;;;;;;;4.25;3.20;;;;;;;18.50;61.59;99974.72;4991107;28;20088;-76
2021/07/08 06:33:52;;;;;;;6.70;3.15;;;;;;;18.53;60.76;99977.13;4991403;28;20061;-75
2021/07/08 06:36:17;;;;;;;6.07;3.65;;;;;;;18.53;60.33;99981.63;4991576;28;20049;-76
2021/07/08 06:38:43;;;;;;;5.75;3.17;;;;;;;18.53;60.19;99982.47;4991813;28;20100;-76
2021/07/08 06:41:08;;;;;;;5.50;3.90;;;;;;;18.58;60.34;99983.00;4974505;28;20038;-74
2021/07/08 06:43:34;;;;;;;5.00;3.15;;;;;;;18.61;60.35;99993.44;4973675;28;20106;-77
2021/07/08 06:45:59;;;;;;;6.35;3.50;;;;;;;18.67;60.33;99992.91;4973958;28;20053;-75
2021/07/08 06:48:24;;;;;;;5.63;3.38;;;;;;;18.67;60.57;99994.75;4991078;28;20038;-75
2021/07/08 06:50:50;;;;;;;14.18;3.75;;;;;;;18.69;60.63;99997.31;4991267;28;20113;-75
2021/07/08 06:53:15;;;;;;;4.93;3.67;;;;;;;18.72;60.55;99992.56;4991045;28;20070;-76
2021/07/08 06:55:40;;;;;;;5.75;4.10;;;;;;;18.76;60.63;100001.22;4991332;28;20514;-76
2021/07/08 06:58:06;;;;;;;5.75;3.25;;;;;;;18.83;60.61;100000.59;4990811;28;20084;-74
2021/07/08 07:00:36;;;;;;;6.43;3.45;;;;;;;18.84;60.54;100002.28;4990857;28;20062;-74
2021/07/08 07:03:02;;;;;;;4.82;3.20;;;;;;;18.83;60.63;100002.44;4990393;28;20056;-74
2021/07/08 07:05:29;;;;;;;5.80;2.75;;;;;;;18.85;60.91;100006.69;4990671;28;20529;-75
2021/07/08 07:07:55;;;;;;;9.50;4.22;;;;;;;18.87;60.95;100006.53;4991243;28;20034;-75
2021/07/08 07:10:23;;;;;;;7.60;3.25;;;;;;;18.88;60.60;100005.59;4991257;28;20026;-74
2021/07/08 07:12:49;;;;;;;6.07;3.35;;;;;;;18.92;60.52;100003.50;4990831;28;20042;-74
2021/07/08 07:15:17;;;;;;;3.83;3.17;;;;;;;18.89;60.67;99996.59;4990881;28;20034;-76
2021/07/08 07:17:44;;;;;;;6.07;3.83;;;;;;;18.95;61.05;99998.78;4990567;28;20030;-75
2021/07/08 07:20:10;;;;;;;5.20;3.10;;;;;;;19.04;60.69;99998.00;4976587;28;20042;-76
2021/07/08 07:22:37;;;;;;;9.73;5.18;;;;;;;19.15;60.38;100006.97;4998480;28;20114;-74
2021/07/08 07:25:04;;;;;;;6.22;3.38;;;;;;;19.22;60.30;100002.81;4999654;28;20034;-75
2021/07/08 07:27:31;;;;;;;7.63;4.35;;;;;;;19.21;60.29;100003.81;5000231;28;20030;-74
2021/07/08 07:29:56;;;;;;;9.25;3.95;;;;;;;19.25;60.42;100002.59;5002549;28;20050;-74
2021/07/08 07:32:22;;;;;;;8.25;3.58;;;;;;;19.29;60.34;100004.88;4979636;28;20033;-75
2021/07/08 07:34:47;;;;;;;5.88;4.00;;;;;;;19.39;60.00;100001.44;4992922;28;20148;-75
2021/07/08 07:37:13;;;;;;;5.15;3.78;;;;;;;19.47;59.90;100005.19;4992743;28;20122;-75
2021/07/08 07:39:41;;;;;;;7.20;3.80;;;;;;;19.56;59.26;100005.41;4991469;28;20042;-74
2021/07/08 07:42:06;;;;;;;5.85;4.28;;;;;;;19.57;59.44;99999.09;4991944;28;20379;-74
2021/07/08 07:44:32;;;;;;;5.80;3.63;;;;;;;19.58;59.44;100003.44;4974263;28;20031;-74
2021/07/08 07:46:57;;;;;;;9.23;4.72;;;;;;;19.58;59.79;99998.94;4991326;28;20054;-75
2021/07/08 07:49:25;;;;;;;5.18;3.50;;;;;;;19.72;59.19;99997.81;4989226;28;20038;-75
2021/07/08 07:51:51;;;;;;;11.40;5.43;;;;;;;19.85;58.81;100006.50;4969510;28;20418;-74
2021/07/08 07:54:16;;;;;;;8.60;3.97;;;;;;;19.93;58.57;100014.72;4969816;28;20034;-74
2021/07/08 07:56:41;;;;;;;9.20;4.78;;;;;;;19.97;58.91;100014.47;4990138;28;20034;-74
2021/07/08 07:59:07;;;;;;;6.13;3.67;;;;;;;20.01;58.79;100015.91;4989956;28;20050;-76
2021/07/08 08:01:32;;;;;;;6.45;4.38;;;;;;;20.17;58.30;100024.31;4989361;28;20045;-75
2021/07/08 08:03:59;;;;;;;8.48;4.10;;;;;;;20.29;58.13;100015.25;4972167;28;20046;-76
2021/07/08 08:09:09;;;;;;;7.05;3.92;;;;;;;20.37;57.77;100010.06;4988786;28;20084;-74
2021/07/08 08:11:34;;;;;;;6.57;3.25;;;;;;;20.39;56.92;99996.56;4989365;28;20462;-75
2021/07/08 08:14:00;;;;;;;5.57;3.67;;;;;;;20.43;57.14;99986.41;4989419;28;20112;-74
2021/07/08 08:16:25;;;;;;;5.55;3.50;;;;;;;20.43;57.26;99986.41;4980018;28;20572;-75
2021/07/08 08:18:51;;;;;;;7.07;4.75;;;;;;;20.54;56.66;99989.84;4971971;28;20123;-75
2021/07/08 08:21:16;;;;;;;7.85;4.05;;;;;;;20.53;57.16;99990.00;4989392;28;20117;-75
2021/07/08 08:23:41;;;;;;;8.27;3.60;;;;;;;20.47;58.08;100001.25;4989313;28;20422;-75
2021/07/08 08:26:07;;;;;;;7.25;4.32;;;;;;;20.59;57.13;100013.59;4989862;28;20055;-75
2021/07/08 08:28:32;;;;;;;16.80;5.43;;;;;;;20.74;57.38;100028.31;4991100;28;20109;-76
2021/07/08 08:30:57;;;;;;;6.32;3.92;;;;;;;21.01;56.07;100034.91;4993267;28;20046;-74
2021/07/08 08:33:23;;;;;;;9.02;3.80;;;;;;;21.19;55.95;100029.72;4993364;28;20046;-74
2021/07/08 08:35:49;;;;;;;9.80;4.32;;;;;;;21.14;55.46;100035.53;4992977;28;20039;-75
2021/07/08 08:38:14;;;;;;;10.63;4.07;;;;;;;21.23;55.11;100041.88;4993108;28;20489;-75
2021/07/08 08:40:40;;;;;;;5.43;3.15;;;;;;;21.46;55.69;100033.63;4993475;28;20510;-75
2021/07/08 08:43:05;;;;;;;9.00;3.45;;;;;;;21.55;55.15;100022.91;4994306;28;20392;-76
2021/07/08 08:45:31;;;;;;;10.00;3.83;;;;;;;21.64;54.45;100027.44;4991364;28;20026;-75
2021/07/08 08:48:02;;;;;;;5.18;3.30;;;;;;;21.74;53.99;100029.28;4991249;28;20049;-76
2021/07/08 08:50:36;;;;;;;7.22;3.17;;;;;;;21.70;53.98;100027.84;4990517;28;20109;-74
2021/07/08 08:53:03;;;;;;;10.57;3.40;;;;;;;21.67;54.23;100031.66;4989749;28;20042;-74
2021/07/08 08:55:29;;;;;;;5.68;3.28;;;;;;;21.55;53.69;100025.56;4990170;28;20749;-73
2021/07/08 08:57:54;;;;;;;5.85;3.47;;;;;;;21.47;53.98;100028.13;4990554;28;20038;-75
2021/07/08 09:00:25;;;;;;;15.75;3.88;;;;;;;21.43;55.27;100032.91;4972529;28;20035;-75
2021/07/08 09:03:02;;;;;;;8.32;3.92;;;;;;;21.39;55.45;100036.88;4990422;28;20449;-75
2021/07/08 09:05:27;;;;;;;5.95;2.95;;;;;;;;;;4988638;28;20622;-75
2021/07/08 09:08:15;;;;;;;11.27;4.82;;;;;;;21.38;56.02;100040.50;4989534;28;20054;-75
2021/07/08 09:11:01;;;;;;;6.38;4.10;;;;;;;21.40;56.01;100054.66;4990146;28;20048;-74
2021/07/08 09:13:27;;;;;;;8.30;3.42;;;;;;;21.36;55.14;100047.84;4990347;28;20069;-76
2021/07/08 09:15:53;;;;;;;8.43;3.30;;;;;;;21.33;54.69;100039.22;4991621;28;20062;-76
2021/07/08 09:18:18;;;;;;;6.13;4.05;;;;;;;21.31;53.95;100039.34;4991983;28;20081;-75
2021/07/08 09:20:44;;;;;;;7.35;4.10;;;;;;;21.29;54.27;100049.38;4990254;28;20034;-75
2021/07/08 09:23:18;;;;;;;5.68;3.13;;;;;;;21.31;54.29;100043.88;4991067;28;20089;-75
2021/07/08 09:25:45;;;;;;;8.02;3.63;;;;;;;21.25;55.16;100041.75;4991213;28;20125;-76
2021/07/08 09:28:15;;;;;;;11.43;3.67;;;;;;;21.18;55.64;100042.28;4990128;28;20052;-75
2021/07/08 09:30:43;;;;;;;11.10;4.28;;;;;;;21.20;56.01;100039.47;4989773;28;20084;-76
2021/07/08 09:33:28;;;;;;;5.18;2.88;;;;;;;21.22;55.87;100035.66;4972604;28;20034;-75
2021/07/08 09:36:04;;;;;;;4.70;3.25;;;;;;;21.20;56.02;100029.59;4989545;28;20030;-76
2021/07/08 09:38:30;;;;;;;7.65;3.58;;;;;;;21.09;56.29;100029.69;4988397;28;20113;-76
2021/07/08 09:41:11;;;;;;;8.90;3.78;;;;;;;21.01;56.57;100029.53;4989679;28;20125;-75
2021/07/08 09:43:38;;;;;;;10.18;3.90;;;;;;;21.04;57.03;100028.41;4972319;28;20057;-76
2021/07/08 09:46:05;;;;;;;7.45;3.28;;;;;;;21.09;57.30;100024.34;4989687;28;20568;-73
2021/07/08 09:48:30;;;;;;;6.22;3.40;;;;;;;21.08;56.09;100028.00;4990087;28;20394;-75
2021/07/08 09:50:56;;;;;;;5.60;4.28;;;;;;;21.08;55.93;100021.81;4986209;28;20030;-75
2021/07/08 09:53:25;;;;;;;6.35;3.28;;;;;;;21.09;56.39;100028.84;4989660;28;20246;-74
2021/07/08 09:58:32;;;;;;;6.38;3.65;;;;;;;21.09;55.94;100035.06;4990333;28;20038;-75
2021/07/08 10:01:08;;;;;;;5.80;3.42;;;;;;;21.17;55.07;100037.91;4986557;28;20034;-75
2021/07/08 10:03:35;;;;;;;7.80;3.85;;;;;;;21.21;55.37;100043.84;4989410;28;20160;-76
2021/07/08 10:06:01;;;;;;;5.28;3.25;;;;;;;21.29;55.08;100038.66;4990582;28;20038;-76
2021/07/08 10:08:27;;;;;;;6.53;3.25;;;;;;;21.35;54.55;100030.03;4972276;28;20640;-74
2021/07/08 10:10:53;;;;;;;8.18;3.67;;;;;;;21.38;54.04;100027.06;4988869;28;20026;-74
2021/07/08 10:13:19;;;;;;;11.25;4.75;;;;;;;21.46;53.79;100028.25;4989215;28;20038;-75
2021/07/08 10:15:44;;;;;;;6.50;3.55;;;;;;;21.58;53.67;100021.75;4989813;28;20031;-75
2021/07/08 10:18:12;;;;;;;8.27;3.83;;;;;;;21.76;53.91;100021.94;4988940;28;20506;-74
2021/07/08 10:20:38;;;;;;;8.50;4.22;;;;;;;21.78;53.00;100022.59;4989447;28;20038;-76
2021/07/08 10:23:05;;;;;;;9.10;4.28;;;;;;;21.92;52.43;100019.50;4989427;28;20554;-74
2021/07/08 10:25:31;;;;;;;11.85;5.75;;;;;;;21.99;54.23;100012.56;4989740;28;20035;-75
2021/07/08 10:27:58;;;;;;;13.63;5.53;;;;;;;22.09;53.62;100010.72;4989232;28;20038;-75
2021/07/08 10:30:24;;;;;;;6.65;3.55;;;;;;;22.22;53.07;100009.59;4989114;28;20513;-75
2021/07/08 10:32:57;;;;;;;16.95;8.77;;;;;;;22.30;51.94;99996.28;4970545;28;20088;-74
2021/07/08 10:35:45;;;;;;;38.00;10.57;;;;;;;22.31;51.50;99997.13;4987561;28;20096;-75
2021/07/08 10:38:33;;;;;;;14.18;5.65;;;;;;;22.57;51.24;99991.94;4971115;28;20066;-74
2021/07/08 10:41:18;;;;;;;11.07;4.78;;;;;;;22.68;50.45;100000.66;4987880;28;20050;-74
2021/07/08 10:43:44;;;;;;;5.53;3.08;;;;;;;22.76;49.94;100015.22;4987229;28;20537;-75
2021/07/08 10:46:12;;;;;;;11.30;4.45;;;;;;;22.84;49.69;100023.38;4988410;28;20145;-75
2021/07/08 10:48:45;;;;;;;7.85;3.78;;;;;;;22.85;49.37;100017.00;4988383;28;20034;-76
2021/07/08 10:51:18;;;;;;;5.22;3.08;;;;;;;22.95;49.53;100017.81;4988018;28;20046;-75
2021/07/08 10:53:46;;;;;;;6.35;4.53;;;;;;;23.10;50.01;100021.72;4988074;28;20034;-75
2021/07/08 10:56:17;;;;;;;7.70;4.28;;;;;;;23.20;49.65;100020.81;4988573;28;20065;-75
2021/07/08 10:58:52;;;;;;;6.93;3.75;;;;;;;23.23;49.61;100015.97;4988203;28;20069;-74
2021/07/08 11:01:29;;;;;;;9.48;4.88;;;;;;;23.49;49.00;100009.84;4988162;28;20039;-77
2021/07/08 11:04:02;;;;;;;10.77;4.45;;;;;;;23.67;48.52;100018.75;4988485;28;20048;-75
2021/07/08 11:06:38;;;;;;;12.30;4.72;;;;;;;23.64;48.69;100016.38;4970650;28;20109;-75
2021/07/08 11:09:04;;;;;;;7.57;3.88;;;;;;;23.53;49.06;100027.41;4971602;28;20489;-75
2021/07/08 11:11:29;;;;;;;9.35;4.57;;;;;;;23.51;49.17;100024.00;4988237;28;20046;-76
2021/07/08 11:13:56;;;;;;;8.85;4.25;;;;;;;23.43;48.98;100029.28;4988004;28;20158;-75
2021/07/08 11:16:41;;;;;;;9.73;4.32;;;;;;;23.36;49.31;100040.66;4969674;28;20026;-76
2021/07/08 11:19:07;;;;;;;8.68;4.57;;;;;;;23.27;49.72;100043.41;4970063;28;20046;-75
2021/07/08 11:22:16;;;;;;;8.40;4.60;;;;;;;23.14;50.17;100043.78;4988550;28;20438;-74
2021/07/08 11:24:47;;;;;;;6.18;3.88;;;;;;;23.03;50.54;100034.06;4988461;28;20113;-75
2021/07/08 11:27:33;;;;;;;7.75;4.38;;;;;;;22.97;50.36;100025.72;4989268;28;20064;-75
2021/07/08 11:30:03;;;;;;;5.47;3.67;;;;;;;22.99;50.20;100024.63;4988385;28;20049;-76
2021/07/08 11:32:45;;;;;;;6.88;3.80;;;;;;;23.00;49.32;100025.47;4988570;28;20053;-75
2021/07/08 11:35:21;;;;;;;11.15;4.45;;;;;;;22.89;50.39;100023.78;4988008;28;20042;-75